sensor_id;sensor_type;location;lat;lon;timestamp;pressure;altitude;pressure_sealevel;temperature;humidity
64066;BME280;50318;54.760;9.408;2022-10-30T00:01:42;101298.88;;;17.70;69.63
64066;BME280;50318;54.760;9.408;2022-10-30T00:04:08;101304.22;;;17.74;69.41
64066;BME280;50318;54.760;9.408;2022-10-30T00:06:34;101288.38;;;17.74;69.37
64066;BME280;50318;54.760;9.408;2022-10-30T00:08:59;101302.50;;;17.76;69.45
64066;BME280;50318;54.760;9.408;2022-10-30T00:11:25;101292.66;;;17.75;69.57
64066;BME280;50318;54.760;9.408;2022-10-30T00:13:50;101289.13;;;17.75;69.59
64066;BME280;50318;54.760;9.408;2022-10-30T00:16:16;101292.44;;;17.79;69.45
64066;BME280;50318;54.760;9.408;2022-10-30T00:18:42;101289.19;;;17.81;69.33
64066;BME280;50318;54.760;9.408;2022-10-30T00:21:12;101291.19;;;17.80;69.18
64066;BME280;50318;54.760;9.408;2022-10-30T00:23:47;101295.72;;;17.77;69.74
64066;BME280;50318;54.760;9.408;2022-10-30T00:26:14;101286.81;;;17.73;69.48
64066;BME280;50318;54.760;9.408;2022-10-30T00:28:40;101280.31;;;17.76;69.53
64066;BME280;50318;54.760;9.408;2022-10-30T00:31:06;101292.34;;;17.73;69.79
64066;BME280;50318;54.760;9.408;2022-10-30T00:33:32;101276.81;;;17.61;69.60
64066;BME280;50318;54.760;9.408;2022-10-30T00:35:58;101280.63;;;17.64;69.94
64066;BME280;50318;54.760;9.408;2022-10-30T00:38:23;101266.97;;;17.60;70.19
64066;BME280;50318;54.760;9.408;2022-10-30T00:40:49;101259.41;;;17.61;70.27
64066;BME280;50318;54.760;9.408;2022-10-30T00:45:55;101255.84;;;17.60;70.43
64066;BME280;50318;54.760;9.408;2022-10-30T00:48:24;101282.84;;;17.60;70.11
64066;BME280;50318;54.760;9.408;2022-10-30T00:50:51;101278.88;;;17.66;70.32
64066;BME280;50318;54.760;9.408;2022-10-30T00:53:19;101257.09;;;17.59;70.63
64066;BME280;50318;54.760;9.408;2022-10-30T00:55:53;101275.28;;;17.60;70.74
64066;BME280;50318;54.760;9.408;2022-10-30T00:58:25;101267.44;;;17.59;70.55
64066;BME280;50318;54.760;9.408;2022-10-30T01:00:54;101265.44;;;17.59;70.61
64066;BME280;50318;54.760;9.408;2022-10-30T01:03:22;101266.97;;;17.60;70.58
64066;BME280;50318;54.760;9.408;2022-10-30T01:05:52;101271.75;;;17.60;70.32
64066;BME280;50318;54.760;9.408;2022-10-30T01:08:19;101259.59;;;17.57;70.54
64066;BME280;50318;54.760;9.408;2022-10-30T01:10:47;101259.59;;;17.57;70.39
64066;BME280;50318;54.760;9.408;2022-10-30T01:13:13;101257.88;;;17.60;70.01
64066;BME280;50318;54.760;9.408;2022-10-30T01:15:49;101259.13;;;17.59;70.04
64066;BME280;50318;54.760;9.408;2022-10-30T01:18:52;101266.69;;;17.58;69.58
64066;BME280;50318;54.760;9.408;2022-10-30T01:24:30;101284.78;;;17.54;69.11
64066;BME280;50318;54.760;9.408;2022-10-30T01:27:17;101287.28;;;17.52;69.17
64066;BME280;50318;54.760;9.408;2022-10-30T01:35:04;101277.53;;;17.41;69.02
64066;BME280;50318;54.760;9.408;2022-10-30T01:40:37;101269.91;;;17.36;69.09
64066;BME280;50318;54.760;9.408;2022-10-30T01:43:03;101262.09;;;17.35;68.87
64066;BME280;50318;54.760;9.408;2022-10-30T01:57:17;101257.13;;;17.24;70.11
64066;BME280;50318;54.760;9.408;2022-10-30T02:00:09;101249.56;;;17.25;70.12
64066;BME280;50318;54.760;9.408;2022-10-30T02:03:06;101245.28;;;17.24;69.91
64066;BME280;50318;54.760;9.408;2022-10-30T02:05:36;101225.03;;;17.17;69.79
64066;BME280;50318;54.760;9.408;2022-10-30T02:08:03;101234.13;;;17.18;69.92
64066;BME280;50318;54.760;9.408;2022-10-30T02:10:30;101235.44;;;17.23;69.83
64066;BME280;50318;54.760;9.408;2022-10-30T02:12:58;101233.44;;;17.23;69.82
64066;BME280;50318;54.760;9.408;2022-10-30T02:15:24;101230.66;;;17.23;69.60
64066;BME280;50318;54.760;9.408;2022-10-30T02:17:50;101226.63;;;17.24;69.61
64066;BME280;50318;54.760;9.408;2022-10-30T02:20:20;101221.09;;;17.24;69.74
64066;BME280;50318;54.760;9.408;2022-10-30T02:22:46;101223.09;;;17.24;69.98
64066;BME280;50318;54.760;9.408;2022-10-30T02:25:12;101230.16;;;17.25;69.70
64066;BME280;50318;54.760;9.408;2022-10-30T02:27:38;101223.38;;;17.26;69.86
64066;BME280;50318;54.760;9.408;2022-10-30T02:30:09;101219.56;;;17.23;69.76
64066;BME280;50318;54.760;9.408;2022-10-30T02:32:35;101217.28;;;17.22;69.81
64066;BME280;50318;54.760;9.408;2022-10-30T02:35:24;101205.34;;;17.15;70.04
64066;BME280;50318;54.760;9.408;2022-10-30T02:37:51;101212.69;;;17.18;70.02
64066;BME280;50318;54.760;9.408;2022-10-30T02:40:16;101197.03;;;17.15;70.10
64066;BME280;50318;54.760;9.408;2022-10-30T02:42:42;101200.38;;;17.19;70.09
64066;BME280;50318;54.760;9.408;2022-10-30T02:45:08;101198.84;;;17.18;70.11
64066;BME280;50318;54.760;9.408;2022-10-30T02:47:34;101196.84;;;17.19;70.28
64066;BME280;50318;54.760;9.408;2022-10-30T02:50:00;101192.81;;;17.20;70.28
64066;BME280;50318;54.760;9.408;2022-10-30T02:52:25;101192.53;;;17.18;70.10
64066;BME280;50318;54.760;9.408;2022-10-30T02:54:51;101189.22;;;17.14;69.96
64066;BME280;50318;54.760;9.408;2022-10-30T02:57:17;101187.41;;;17.11;69.88
64066;BME280;50318;54.760;9.408;2022-10-30T02:59:43;101189.13;;;17.08;69.60
64066;BME280;50318;54.760;9.408;2022-10-30T03:02:09;101167.97;;;16.91;69.24
64066;BME280;50318;54.760;9.408;2022-10-30T03:04:35;101191.03;;;17.02;69.19
64066;BME280;50318;54.760;9.408;2022-10-30T03:07:00;101194.31;;;17.01;69.04
64066;BME280;50318;54.760;9.408;2022-10-30T03:09:26;101194.50;;;16.97;69.01
64066;BME280;50318;54.760;9.408;2022-10-30T03:11:52;101189.44;;;16.96;69.02
64066;BME280;50318;54.760;9.408;2022-10-30T03:14:21;101189.94;;;16.94;69.06
64066;BME280;50318;54.760;9.408;2022-10-30T03:16:47;101193.19;;;16.93;69.25
64066;BME280;50318;54.760;9.408;2022-10-30T03:19:14;101193.94;;;16.93;69.05
64066;BME280;50318;54.760;9.408;2022-10-30T03:21:40;101190.91;;;16.91;69.61
64066;BME280;50318;54.760;9.408;2022-10-30T03:24:05;101196.44;;;16.91;69.85
64066;BME280;50318;54.760;9.408;2022-10-30T03:26:34;101195.19;;;16.92;69.98
64066;BME280;50318;54.760;9.408;2022-10-30T03:29:05;101180.50;;;16.86;70.30
64066;BME280;50318;54.760;9.408;2022-10-30T03:31:52;101200.34;;;16.99;70.84
64066;BME280;50318;54.760;9.408;2022-10-30T03:34:20;101199.94;;;17.06;70.83
64066;BME280;50318;54.760;9.408;2022-10-30T03:36:46;101202.03;;;17.11;70.77
64066;BME280;50318;54.760;9.408;2022-10-30T03:39:38;101204.09;;;17.16;70.88
64066;BME280;50318;54.760;9.408;2022-10-30T03:42:04;101199.88;;;17.21;70.80
64066;BME280;50318;54.760;9.408;2022-10-30T03:44:30;101197.38;;;17.23;70.68
64066;BME280;50318;54.760;9.408;2022-10-30T03:46:55;101187.34;;;17.26;70.55
64066;BME280;50318;54.760;9.408;2022-10-30T03:49:26;101191.16;;;17.28;70.99
64066;BME280;50318;54.760;9.408;2022-10-30T03:51:54;101174.22;;;17.26;71.03
64066;BME280;50318;54.760;9.408;2022-10-30T03:54:22;101168.13;;;17.22;70.43
64066;BME280;50318;54.760;9.408;2022-10-30T03:56:48;101172.81;;;17.31;70.75
64066;BME280;50318;54.760;9.408;2022-10-30T03:59:15;101178.06;;;17.29;70.97
64066;BME280;50318;54.760;9.408;2022-10-30T04:01:43;101169.53;;;17.32;70.58
64066;BME280;50318;54.760;9.408;2022-10-30T04:04:08;101159.22;;;17.33;70.38
64066;BME280;50318;54.760;9.408;2022-10-30T04:06:34;101165.53;;;17.33;70.58
64066;BME280;50318;54.760;9.408;2022-10-30T04:09:00;101163.28;;;17.37;70.45
64066;BME280;50318;54.760;9.408;2022-10-30T04:11:32;101165.31;;;17.37;70.53
64066;BME280;50318;54.760;9.408;2022-10-30T04:13:58;101171.63;;;17.37;70.30
64066;BME280;50318;54.760;9.408;2022-10-30T04:16:23;101162.53;;;17.37;69.73
64066;BME280;50318;54.760;9.408;2022-10-30T04:18:49;101170.84;;;17.37;69.91
64066;BME280;50318;54.760;9.408;2022-10-30T04:21:15;101174.88;;;17.36;69.82
64066;BME280;50318;54.760;9.408;2022-10-30T04:23:41;101166.78;;;17.32;69.81
64066;BME280;50318;54.760;9.408;2022-10-30T04:26:08;101168.78;;;17.32;70.15
64066;BME280;50318;54.760;9.408;2022-10-30T04:28:36;101170.03;;;17.31;69.75
64066;BME280;50318;54.760;9.408;2022-10-30T04:31:03;101175.78;;;17.27;69.86
64066;BME280;50318;54.760;9.408;2022-10-30T04:33:29;101179.59;;;17.30;69.79
64066;BME280;50318;54.760;9.408;2022-10-30T04:35:57;101175.31;;;17.29;69.83
64066;BME280;50318;54.760;9.408;2022-10-30T04:38:23;101177.78;;;17.27;69.88
64066;BME280;50318;54.760;9.408;2022-10-30T04:40:48;101179.59;;;17.30;69.96
64066;BME280;50318;54.760;9.408;2022-10-30T04:43:15;101164.38;;;17.25;70.08
64066;BME280;50318;54.760;9.408;2022-10-30T04:45:42;101169.25;;;17.30;70.13
64066;BME280;50318;54.760;9.408;2022-10-30T04:48:16;101171.56;;;17.32;70.26
64066;BME280;50318;54.760;9.408;2022-10-30T04:50:42;101162.97;;;17.30;70.78
64066;BME280;50318;54.760;9.408;2022-10-30T04:53:14;101173.34;;;17.35;71.17
64066;BME280;50318;54.760;9.408;2022-10-30T04:55:41;101166.06;;;17.37;70.97
64066;BME280;50318;54.760;9.408;2022-10-30T04:58:09;101165.84;;;17.41;70.90
64066;BME280;50318;54.760;9.408;2022-10-30T05:00:37;101167.16;;;17.45;70.83
64066;BME280;50318;54.760;9.408;2022-10-30T05:03:17;101159.13;;;17.47;70.80
64066;BME280;50318;54.760;9.408;2022-10-30T05:05:43;101147.22;;;17.41;70.50
64066;BME280;50318;54.760;9.408;2022-10-30T05:08:09;101157.69;;;17.52;70.68
64066;BME280;50318;54.760;9.408;2022-10-30T05:10:40;101158.34;;;17.47;70.73
64066;BME280;50318;54.760;9.408;2022-10-30T05:13:09;101165.03;;;17.55;70.47
64066;BME280;50318;54.760;9.408;2022-10-30T05:15:35;101164.53;;;17.57;70.55
64066;BME280;50318;54.760;9.408;2022-10-30T05:18:01;101166.06;;;17.58;70.68
64066;BME280;50318;54.760;9.408;2022-10-30T05:20:31;101155.94;;;17.55;70.60
64066;BME280;50318;54.760;9.408;2022-10-30T05:22:58;101169.88;;;17.60;70.44
64066;BME280;50318;54.760;9.408;2022-10-30T05:25:25;101181.72;;;17.61;70.45
64066;BME280;50318;54.760;9.408;2022-10-30T05:28:02;101159.47;;;17.55;70.61
64066;BME280;50318;54.760;9.408;2022-10-30T05:30:32;101174.16;;;17.61;70.40
64066;BME280;50318;54.760;9.408;2022-10-30T05:33:06;101180.19;;;17.60;70.37
64066;BME280;50318;54.760;9.408;2022-10-30T05:35:34;101182.22;;;17.59;70.32
64066;BME280;50318;54.760;9.408;2022-10-30T05:38:02;101177.09;;;17.52;70.40
64066;BME280;50318;54.760;9.408;2022-10-30T05:40:31;101184.94;;;17.54;70.44
64066;BME280;50318;54.760;9.408;2022-10-30T05:42:58;101178.34;;;17.51;70.47
64066;BME280;50318;54.760;9.408;2022-10-30T05:45:24;101179.56;;;17.50;70.36
64066;BME280;50318;54.760;9.408;2022-10-30T05:48:02;101179.56;;;17.50;70.32
64066;BME280;50318;54.760;9.408;2022-10-30T05:50:33;101185.13;;;17.50;70.50
64066;BME280;50318;54.760;9.408;2022-10-30T05:53:13;101178.53;;;17.47;70.74
64066;BME280;50318;54.760;9.408;2022-10-30T05:55:38;101178.81;;;17.49;70.60
64066;BME280;50318;54.760;9.408;2022-10-30T05:58:11;101196.22;;;17.50;70.45
64066;BME280;50318;54.760;9.408;2022-10-30T06:00:40;101191.63;;;17.47;70.33
64066;BME280;50318;54.760;9.408;2022-10-30T06:03:10;101192.13;;;17.45;70.42
64066;BME280;50318;54.760;9.408;2022-10-30T06:05:48;101197.41;;;17.43;70.31
64066;BME280;50318;54.760;9.408;2022-10-30T06:08:20;101188.25;;;17.37;70.41
64066;BME280;50318;54.760;9.408;2022-10-30T06:10:48;101197.59;;;17.40;70.19
64066;BME280;50318;54.760;9.408;2022-10-30T06:13:21;101196.56;;;17.37;69.90
64066;BME280;50318;54.760;9.408;2022-10-30T06:16:09;101189.72;;;17.33;69.93
64066;BME280;50318;54.760;9.408;2022-10-30T06:19:16;101187.91;;;17.30;70.04
64066;BME280;50318;54.760;9.408;2022-10-30T06:21:42;101177.78;;;17.27;69.80
64066;BME280;50318;54.760;9.408;2022-10-30T06:24:13;101169.59;;;17.17;70.09
64066;BME280;50318;54.760;9.408;2022-10-30T06:26:57;101158.66;;;17.08;70.24
64066;BME280;50318;54.760;9.408;2022-10-30T06:29:28;101176.81;;;17.09;70.38
64066;BME280;50318;54.760;9.408;2022-10-30T06:31:54;101160.88;;;17.04;70.55
64066;BME280;50318;54.760;9.408;2022-10-30T06:34:20;101167.34;;;17.01;70.34
64066;BME280;50318;54.760;9.408;2022-10-30T06:36:45;101176.72;;;17.04;70.32
64066;BME280;50318;54.760;9.408;2022-10-30T06:39:11;101168.59;;;17.00;70.69
64066;BME280;50318;54.760;9.408;2022-10-30T06:41:51;101175.31;;;16.94;70.60
64066;BME280;50318;54.760;9.408;2022-10-30T06:44:26;101199.09;;;17.00;70.89
64066;BME280;50318;54.760;9.408;2022-10-30T06:46:52;101192.03;;;16.99;70.78
64066;BME280;50318;54.760;9.408;2022-10-30T06:49:19;101183.97;;;17.01;70.94
64066;BME280;50318;54.760;9.408;2022-10-30T06:51:46;101175.66;;;17.01;70.70
64066;BME280;50318;54.760;9.408;2022-10-30T06:54:12;101182.72;;;17.02;70.70
64066;BME280;50318;54.760;9.408;2022-10-30T06:56:37;101179.03;;;17.05;70.93
64066;BME280;50318;54.760;9.408;2022-10-30T06:59:35;101175.78;;;17.07;70.35
64066;BME280;50318;54.760;9.408;2022-10-30T07:02:20;101166.41;;;17.04;70.67
64066;BME280;50318;54.760;9.408;2022-10-30T07:04:53;101181.31;;;17.07;70.58
64066;BME280;50318;54.760;9.408;2022-10-30T07:07:19;101183.81;;;17.05;70.30
64066;BME280;50318;54.760;9.408;2022-10-30T07:09:44;101171.38;;;17.00;70.25
64066;BME280;50318;54.760;9.408;2022-10-30T07:12:11;101181.50;;;17.03;70.37
64066;BME280;50318;54.760;9.408;2022-10-30T07:14:56;101187.34;;;17.05;70.42
64066;BME280;50318;54.760;9.408;2022-10-30T07:17:31;101187.63;;;17.07;70.63
64066;BME280;50318;54.760;9.408;2022-10-30T07:20:02;101190.88;;;17.06;70.63
64066;BME280;50318;54.760;9.408;2022-10-30T07:22:28;101200.03;;;17.12;70.54
64066;BME280;50318;54.760;9.408;2022-10-30T07:24:55;101205.84;;;17.14;71.10
64066;BME280;50318;54.760;9.408;2022-10-30T07:30:31;101203.06;;;17.14;70.70
64066;BME280;50318;54.760;9.408;2022-10-30T07:33:15;101206.47;;;17.24;70.59
64066;BME280;50318;54.760;9.408;2022-10-30T07:36:00;101217.44;;;17.33;70.44
64066;BME280;50318;54.760;9.408;2022-10-30T07:38:50;101194.97;;;17.31;70.75
64066;BME280;50318;54.760;9.408;2022-10-30T07:41:39;101222.91;;;17.47;70.84
64066;BME280;50318;54.760;9.408;2022-10-30T07:44:44;101223.28;;;17.55;70.63
64066;BME280;50318;54.760;9.408;2022-10-30T07:47:17;101223.59;;;17.63;70.76
64066;BME280;50318;54.760;9.408;2022-10-30T07:49:45;101212.59;;;17.68;70.96
64066;BME280;50318;54.760;9.408;2022-10-30T07:52:12;101221.78;;;17.74;70.16
64066;BME280;50318;54.760;9.408;2022-10-30T07:54:38;101222.31;;;17.78;70.77
64066;BME280;50318;54.760;9.408;2022-10-30T07:57:39;101227.16;;;17.84;70.61
64066;BME280;50318;54.760;9.408;2022-10-30T08:00:22;101237.56;;;17.89;70.00
64066;BME280;50318;54.760;9.408;2022-10-30T08:02:58;101229.22;;;17.89;70.41
64066;BME280;50318;54.760;9.408;2022-10-30T08:05:45;101230.53;;;17.93;69.64
64066;BME280;50318;54.760;9.408;2022-10-30T08:08:20;101222.97;;;17.94;69.84
64066;BME280;50318;54.760;9.408;2022-10-30T08:10:52;101224.22;;;17.93;69.73
64066;BME280;50318;54.760;9.408;2022-10-30T08:13:17;101234.34;;;17.96;69.77
64066;BME280;50318;54.760;9.408;2022-10-30T08:15:43;101222.97;;;17.94;69.68
64066;BME280;50318;54.760;9.408;2022-10-30T08:18:10;101231.56;;;17.96;69.63
64066;BME280;50318;54.760;9.408;2022-10-30T08:20:38;101230.03;;;17.95;69.44
64066;BME280;50318;54.760;9.408;2022-10-30T08:23:03;101230.81;;;17.95;69.69
64066;BME280;50318;54.760;9.408;2022-10-30T08:25:31;101231.09;;;17.97;69.97
64066;BME280;50318;54.760;9.408;2022-10-30T08:28:04;101228.88;;;18.01;70.04
64066;BME280;50318;54.760;9.408;2022-10-30T08:30:35;101229.69;;;18.07;70.13
64066;BME280;50318;54.760;9.408;2022-10-30T08:33:05;101236.81;;;18.14;70.39
64066;BME280;50318;54.760;9.408;2022-10-30T08:35:54;101229.59;;;18.22;70.41
64066;BME280;50318;54.760;9.408;2022-10-30T08:38:25;101221.84;;;18.32;70.68
64066;BME280;50318;54.760;9.408;2022-10-30T08:41:20;101232.09;;;18.46;70.85
64066;BME280;50318;54.760;9.408;2022-10-30T08:43:49;101216.97;;;18.53;70.91
64066;BME280;50318;54.760;9.408;2022-10-30T08:46:16;101229.03;;;18.70;70.92
64066;BME280;50318;54.760;9.408;2022-10-30T08:48:42;101233.41;;;18.82;70.67
64066;BME280;50318;54.760;9.408;2022-10-30T08:51:08;101235.97;;;18.91;70.43
64066;BME280;50318;54.760;9.408;2022-10-30T08:53:40;101232.50;;;18.96;70.18
64066;BME280;50318;54.760;9.408;2022-10-30T08:56:10;101233.56;;;19.05;69.94
64066;BME280;50318;54.760;9.408;2022-10-30T08:58:55;101223.47;;;19.07;69.94
64066;BME280;50318;54.760;9.408;2022-10-30T09:01:21;101225.56;;;19.18;69.80
64066;BME280;50318;54.760;9.408;2022-10-30T09:04:05;101231.66;;;19.22;69.64
64066;BME280;50318;54.760;9.408;2022-10-30T09:06:53;101233.69;;;19.27;69.51
64066;BME280;50318;54.760;9.408;2022-10-30T09:09:41;101232.94;;;19.32;69.30
64066;BME280;50318;54.760;9.408;2022-10-30T09:12:24;101234.72;;;19.35;68.91
64066;BME280;50318;54.760;9.408;2022-10-30T09:14:49;101245.41;;;19.42;69.31
64066;BME280;50318;54.760;9.408;2022-10-30T09:17:16;101233.28;;;19.45;69.41
64066;BME280;50318;54.760;9.408;2022-10-30T09:19:44;101237.38;;;19.55;69.15
64066;BME280;50318;54.760;9.408;2022-10-30T09:22:15;101243.47;;;19.59;69.23
64066;BME280;50318;54.760;9.408;2022-10-30T09:24:41;101237.44;;;19.67;69.11
64066;BME280;50318;54.760;9.408;2022-10-30T09:27:45;101241.94;;;19.58;69.37
64066;BME280;50318;54.760;9.408;2022-10-30T09:30:12;101245.75;;;19.55;69.41
64066;BME280;50318;54.760;9.408;2022-10-30T09:32:54;101244.66;;;19.47;69.63
64066;BME280;50318;54.760;9.408;2022-10-30T09:35:22;101256.28;;;19.46;69.84
64066;BME280;50318;54.760;9.408;2022-10-30T09:37:49;101235.00;;;19.37;69.88
64066;BME280;50318;54.760;9.408;2022-10-30T09:40:43;101254.47;;;19.37;70.07
64066;BME280;50318;54.760;9.408;2022-10-30T09:43:32;101256.72;;;19.33;70.55
64066;BME280;50318;54.760;9.408;2022-10-30T09:46:33;101252.91;;;19.30;70.52
64066;BME280;50318;54.760;9.408;2022-10-30T09:52:06;101256.19;;;19.23;70.60
64066;BME280;50318;54.760;9.408;2022-10-30T09:57:43;101260.25;;;19.28;71.52
64066;BME280;50318;54.760;9.408;2022-10-30T10:00:27;101257.69;;;19.24;71.54
64066;BME280;50318;54.760;9.408;2022-10-30T10:06:09;101267.59;;;19.31;71.37
64066;BME280;50318;54.760;9.408;2022-10-30T10:09:06;101272.41;;;19.36;71.72
64066;BME280;50318;54.760;9.408;2022-10-30T10:14:49;101281.31;;;19.40;71.76
64066;BME280;50318;54.760;9.408;2022-10-30T10:17:28;101289.41;;;19.44;71.73
64066;BME280;50318;54.760;9.408;2022-10-30T10:19:57;101286.41;;;19.47;71.69
64066;BME280;50318;54.760;9.408;2022-10-30T10:22:42;101286.16;;;19.51;71.70
64066;BME280;50318;54.760;9.408;2022-10-30T10:25:15;101286.22;;;19.56;71.71
64066;BME280;50318;54.760;9.408;2022-10-30T10:27:52;101280.66;;;19.62;71.68
64066;BME280;50318;54.760;9.408;2022-10-30T10:30:22;101280.47;;;19.66;71.68
64066;BME280;50318;54.760;9.408;2022-10-30T10:33:04;101294.13;;;19.69;71.52
64066;BME280;50318;54.760;9.408;2022-10-30T10:35:55;101288.06;;;19.71;71.27
64066;BME280;50318;54.760;9.408;2022-10-30T10:46:23;101301.25;;;19.81;71.36
64066;BME280;50318;54.760;9.408;2022-10-30T10:51:43;101287.63;;;19.89;71.70
64066;BME280;50318;54.760;9.408;2022-10-30T10:54:11;101291.19;;;19.95;71.28
64066;BME280;50318;54.760;9.408;2022-10-30T10:56:41;101281.06;;;19.98;71.18
64066;BME280;50318;54.760;9.408;2022-10-30T11:01:44;101288.94;;;20.10;71.03
64066;BME280;50318;54.760;9.408;2022-10-30T11:04:27;101288.22;;;20.15;71.25
64066;BME280;50318;54.760;9.408;2022-10-30T11:06:57;101281.88;;;20.15;71.26
64066;BME280;50318;54.760;9.408;2022-10-30T11:09:25;101290.00;;;20.18;70.61
64066;BME280;50318;54.760;9.408;2022-10-30T11:11:53;101282.16;;;20.17;70.65
64066;BME280;50318;54.760;9.408;2022-10-30T11:14:42;101293.28;;;20.22;70.85
64066;BME280;50318;54.760;9.408;2022-10-30T11:17:26;101284.69;;;20.20;70.95
64066;BME280;50318;54.760;9.408;2022-10-30T11:19:57;101298.38;;;20.24;70.83
64066;BME280;50318;54.760;9.408;2022-10-30T11:24:55;101291.53;;;20.19;70.59
64066;BME280;50318;54.760;9.408;2022-10-30T11:27:25;101311.53;;;20.23;70.57
64066;BME280;50318;54.760;9.408;2022-10-30T11:30:00;101308.75;;;20.23;70.65
64066;BME280;50318;54.760;9.408;2022-10-30T11:32:29;101309.50;;;20.24;70.81
64066;BME280;50318;54.760;9.408;2022-10-30T11:37:41;101308.00;;;20.34;70.64
64066;BME280;50318;54.760;9.408;2022-10-30T11:42:42;101307.56;;;20.47;70.70
64066;BME280;50318;54.760;9.408;2022-10-30T11:45:24;101304.25;;;20.54;70.96
64066;BME280;50318;54.760;9.408;2022-10-30T11:47:51;101305.56;;;20.59;70.45
64066;BME280;50318;54.760;9.408;2022-10-30T11:50:21;101305.31;;;20.62;70.60
64066;BME280;50318;54.760;9.408;2022-10-30T11:53:09;101298.72;;;20.65;70.26
64066;BME280;50318;54.760;9.408;2022-10-30T11:55:40;101306.56;;;20.67;70.38
64066;BME280;50318;54.760;9.408;2022-10-30T11:58:23;101303.03;;;20.66;69.91
64066;BME280;50318;54.760;9.408;2022-10-30T12:01:00;101309.09;;;20.70;69.77
64066;BME280;50318;54.760;9.408;2022-10-30T12:03:35;101313.91;;;20.70;69.87
64066;BME280;50318;54.760;9.408;2022-10-30T12:11:34;101311.38;;;20.61;69.72
64066;BME280;50318;54.760;9.408;2022-10-30T12:14:00;101297.97;;;20.59;69.81
64066;BME280;50318;54.760;9.408;2022-10-30T12:16:27;101304.28;;;20.60;69.68
64066;BME280;50318;54.760;9.408;2022-10-30T12:19:04;101307.34;;;20.62;69.71
64066;BME280;50318;54.760;9.408;2022-10-30T12:21:37;101303.53;;;20.59;69.64
64066;BME280;50318;54.760;9.408;2022-10-30T12:24:05;101304.28;;;20.60;69.58
64066;BME280;50318;54.760;9.408;2022-10-30T12:26:38;101299.72;;;20.57;70.12
64066;BME280;50318;54.760;9.408;2022-10-30T12:29:10;101300.47;;;20.57;69.95
64066;BME280;50318;54.760;9.408;2022-10-30T12:31:59;101293.91;;;20.60;70.00
64066;BME280;50318;54.760;9.408;2022-10-30T12:37:27;101282.50;;;20.64;69.99
64066;BME280;50318;54.760;9.408;2022-10-30T12:42:22;101289.84;;;20.72;69.87
64066;BME280;50318;54.760;9.408;2022-10-30T12:47:44;101291.09;;;20.77;69.46
64066;BME280;50318;54.760;9.408;2022-10-30T12:50:31;101293.91;;;20.77;68.92
64066;BME280;50318;54.760;9.408;2022-10-30T12:55:54;101290.84;;;20.80;69.59
64066;BME280;50318;54.760;9.408;2022-10-30T12:58:47;101284.50;;;20.74;68.84
64066;BME280;50318;54.760;9.408;2022-10-30T13:01:29;101291.59;;;20.81;69.17
64066;BME280;50318;54.760;9.408;2022-10-30T13:04:27;101291.13;;;20.82;69.36
64066;BME280;50318;54.760;9.408;2022-10-30T13:07:03;101291.38;;;20.84;69.14
64066;BME280;50318;54.760;9.408;2022-10-30T13:09:37;101285.81;;;20.84;69.62
64066;BME280;50318;54.760;9.408;2022-10-30T13:14:37;101279.97;;;20.88;68.78
64066;BME280;50318;54.760;9.408;2022-10-30T13:17:11;101279.22;;;20.88;68.77
64066;BME280;50318;54.760;9.408;2022-10-30T13:19:39;101274.91;;;20.87;69.26
64066;BME280;50318;54.760;9.408;2022-10-30T13:22:18;101274.38;;;20.88;68.65
64066;BME280;50318;54.760;9.408;2022-10-30T13:30:53;101275.16;;;20.89;68.37
64066;BME280;50318;54.760;9.408;2022-10-30T13:33:46;101277.94;;;20.89;68.70
64066;BME280;50318;54.760;9.408;2022-10-30T13:47:56;101279.97;;;20.88;69.00
64066;BME280;50318;54.760;9.408;2022-10-30T13:50:41;101272.34;;;20.89;68.99
64066;BME280;50318;54.760;9.408;2022-10-30T13:53:14;101266.28;;;20.90;68.83
64066;BME280;50318;54.760;9.408;2022-10-30T13:55:54;101276.66;;;20.90;68.67
64066;BME280;50318;54.760;9.408;2022-10-30T13:58:31;101260.47;;;20.82;68.64
64066;BME280;50318;54.760;9.408;2022-10-30T14:01:13;101272.34;;;20.89;68.94
64066;BME280;50318;54.760;9.408;2022-10-30T14:04:05;101278.44;;;20.87;69.12
64066;BME280;50318;54.760;9.408;2022-10-30T14:06:54;101277.69;;;20.87;68.52
64066;BME280;50318;54.760;9.408;2022-10-30T14:11:52;101267.56;;;20.83;68.69
64066;BME280;50318;54.760;9.408;2022-10-30T14:17:15;101264.50;;;20.76;68.63
64066;BME280;50318;54.760;9.408;2022-10-30T14:22:32;101270.59;;;20.63;68.36
64066;BME280;50318;54.760;9.408;2022-10-30T14:25:00;101261.19;;;20.55;68.75
64066;BME280;50318;54.760;9.408;2022-10-30T14:27:28;101262.22;;;20.52;68.75
64066;BME280;50318;54.760;9.408;2022-10-30T14:29:55;101257.41;;;20.41;68.94
64066;BME280;50318;54.760;9.408;2022-10-30T14:39:48;101271.78;;;20.23;69.22
64066;BME280;50318;54.760;9.408;2022-10-30T14:58:35;101257.78;;;19.89;69.47
64066;BME280;50318;54.760;9.408;2022-10-30T15:01:22;101263.56;;;19.86;69.48
64066;BME280;50318;54.760;9.408;2022-10-30T15:07:00;101262.53;;;19.78;69.69
64066;BME280;50318;54.760;9.408;2022-10-30T15:15:18;101262.72;;;19.63;70.42
64066;BME280;50318;54.760;9.408;2022-10-30T15:17:46;101267.25;;;19.60;70.14
64066;BME280;50318;54.760;9.408;2022-10-30T15:20:20;101272.31;;;19.56;70.36
64066;BME280;50318;54.760;9.408;2022-10-30T15:22:49;101276.09;;;19.53;70.28
64066;BME280;50318;54.760;9.408;2022-10-30T15:25:32;101272.75;;;19.49;70.32
64066;BME280;50318;54.760;9.408;2022-10-30T15:27:59;101277.78;;;19.45;70.29
64066;BME280;50318;54.760;9.408;2022-10-30T15:30:27;101271.72;;;19.41;70.14
64066;BME280;50318;54.760;9.408;2022-10-30T15:32:52;101269.13;;;19.38;70.26
64066;BME280;50318;54.760;9.408;2022-10-30T15:35:22;101277.19;;;19.30;70.28
64066;BME280;50318;54.760;9.408;2022-10-30T15:38:00;101275.66;;;19.29;70.47